Time;durP1;ratioP1;P1;durP2;ratioP2;P2;SDS_P1;SDS_P2;PMS_P1;PMS_P2;Temp;Humidity;BMP_temperature;BMP_pressure;BME280_temperature;BME280_humidity;BME280_pressure;Samples;Min_cycle;Max_cycle;Signal;HPM_P1;HPM_P2
2023/11/26 00:01:07;;;;;;;9.82;3.10;;;2.40;75.00;;;;;;4825722;29;20046;-95
2023/11/26 00:03:34;;;;;;;9.18;3.15;;;2.30;75.00;;;;;;4810523;29;20042;-93
2023/11/26 00:06:04;;;;;;;8.10;3.00;;;2.30;75.10;;;;;;4825491;29;20581;-94
2023/11/26 00:08:31;;;;;;;10.52;3.13;;;2.30;75.20;;;;;;4824893;29;20053;-94
2023/11/26 00:10:58;;;;;;;7.78;3.35;;;2.30;75.10;;;;;;4825232;29;20050;-95
2023/11/26 00:13:26;;;;;;;10.00;3.25;;;2.40;75.10;;;;;;4825620;29;20077;-95
2023/11/26 00:15:53;;;;;;;9.57;3.47;;;2.30;75.00;;;;;;4810562;29;20112;-94
2023/11/26 00:18:20;;;;;;;11.47;3.00;;;2.30;74.70;;;;;;4825508;29;20627;-94
2023/11/26 00:20:47;;;;;;;9.00;3.13;;;2.30;74.90;;;;;;4810294;29;20146;-94
2023/11/26 00:23:14;;;;;;;10.52;2.83;;;2.30;74.70;;;;;;4825370;29;20054;-94
2023/11/26 00:25:41;;;;;;;10.98;3.42;;;2.30;74.70;;;;;;4809908;29;20136;-95
2023/11/26 00:28:08;;;;;;;10.32;3.03;;;2.30;74.60;;;;;;4825242;29;20509;-96
2023/11/26 00:30:35;;;;;;;9.70;2.80;;;2.30;74.70;;;;;;4809881;29;20046;-96
2023/11/26 00:33:03;;;;;;;14.02;3.67;;;2.30;74.50;;;;;;4825325;29;20513;-95
2023/11/26 00:35:30;;;;;;;11.55;3.50;;;2.20;74.50;;;;;;4825178;29;20055;-94
2023/11/26 00:37:59;;;;;;;10.45;2.95;;;2.10;74.90;;;;;;4846557;29;20172;-95
2023/11/26 00:40:26;;;;;;;8.07;2.67;;;2.00;74.90;;;;;;4861630;29;20101;-94
2023/11/26 00:42:53;;;;;;;9.73;3.03;;;2.00;75.00;;;;;;4861378;29;20053;-94
2023/11/26 00:45:20;;;;;;;11.98;3.47;;;2.00;75.30;;;;;;4861542;29;20572;-93
2023/11/26 00:47:48;;;;;;;8.95;3.03;;;2.00;75.40;;;;;;4846106;29;20092;-94
2023/11/26 00:50:17;;;;;;;11.43;3.70;;;2.00;75.20;;;;;;4861335;29;20508;-95
2023/11/26 00:52:45;;;;;;;10.30;3.80;;;2.00;75.40;;;;;;4861435;29;20144;-94
2023/11/26 00:55:12;;;;;;;9.67;3.30;;;2.00;75.40;;;;;;4861236;29;20053;-96
2023/11/26 00:57:39;;;;;;;9.13;3.65;;;2.00;75.30;;;;;;4861210;29;20560;-95
2023/11/26 01:00:10;;;;;;;10.23;4.15;;;2.10;75.40;;;;;;4861259;29;20057;-94
2023/11/26 01:02:38;;;;;;;10.52;4.22;;;2.20;75.20;;;;;;4861154;29;20053;-94
2023/11/26 01:05:06;;;;;;;10.27;3.97;;;2.10;75.20;;;;;;4861010;29;20059;-95
2023/11/26 01:07:33;;;;;;;13.67;4.60;;;2.20;75.30;;;;;;4861222;29;20057;-95
2023/11/26 01:10:00;;;;;;;10.63;4.15;;;2.20;75.30;;;;;;4861040;29;20516;-95
2023/11/26 01:12:27;;;;;;;13.27;4.90;;;2.20;74.90;;;;;;4845840;29;20452;-95
2023/11/26 01:14:55;;;;;;;10.95;4.70;;;2.20;75.10;;;;;;4861199;29;20105;-95
2023/11/26 01:17:22;;;;;;;11.10;4.85;;;2.20;75.10;;;;;;4861047;29;20423;-95
2023/11/26 01:19:50;;;;;;;11.73;4.23;;;2.30;75.10;;;;;;4860422;29;20054;-94
2023/11/26 01:22:17;;;;;;;13.70;5.07;;;2.30;74.50;;;;;;4861081;29;20144;-95
2023/11/26 01:24:44;;;;;;;12.82;5.22;;;2.30;74.90;;;;;;4860704;29;20050;-96
2023/11/26 01:27:11;;;;;;;13.90;5.28;;;2.40;75.00;;;;;;4860832;29;20046;-94
2023/11/26 01:29:38;;;;;;;12.40;4.82;;;2.40;75.20;;;;;;4861007;29;20456;-95
2023/11/26 01:32:05;;;;;;;13.37;5.13;;;2.50;75.20;;;;;;4860827;29;20054;-95
2023/11/26 01:34:33;;;;;;;12.57;5.40;;;2.40;75.20;;;;;;4861059;29;20055;-95
2023/11/26 01:37:00;;;;;;;14.07;5.30;;;2.40;75.10;;;;;;4860543;29;20053;-95
2023/11/26 01:39:27;;;;;;;14.60;6.03;;;2.40;74.60;;;;;;4860971;29;20085;-94
2023/11/26 01:41:55;;;;;;;16.40;5.03;;;2.30;75.00;;;;;;4861210;29;20086;-95
2023/11/26 01:44:22;;;;;;;11.97;5.00;;;2.20;75.10;;;;;;4860726;29;20092;-95
2023/11/26 01:46:50;;;;;;;11.52;5.13;;;2.00;75.10;;;;;;4861041;29;20089;-94
2023/11/26 01:49:17;;;;;;;14.88;6.05;;;2.00;76.00;;;;;;4860858;29;20417;-94
2023/11/26 01:51:45;;;;;;;14.55;5.25;;;2.00;75.70;;;;;;4860544;29;20052;-94
2023/11/26 01:54:12;;;;;;;14.30;6.18;;;1.90;75.90;;;;;;4861210;29;20113;-95
2023/11/26 01:56:39;;;;;;;13.73;5.60;;;1.90;76.30;;;;;;4860563;29;20045;-95
2023/11/26 01:59:07;;;;;;;14.35;6.05;;;1.90;76.30;;;;;;4845547;29;20404;-94
2023/11/26 02:01:35;;;;;;;14.82;6.15;;;1.90;76.20;;;;;;4860488;29;20041;-94
2023/11/26 02:04:02;;;;;;;14.45;5.93;;;1.90;76.80;;;;;;4860657;29;20060;-94
2023/11/26 02:06:30;;;;;;;15.85;5.95;;;1.90;76.80;;;;;;4860460;29;20041;-94
2023/11/26 02:08:57;;;;;;;14.67;5.73;;;2.00;76.90;;;;;;4860434;29;20053;-95
2023/11/26 02:11:24;;;;;;;17.80;7.50;;;2.00;76.30;;;;;;4860486;29;20385;-95
2023/11/26 02:13:54;;;;;;;14.98;5.90;;;2.10;76.40;;;;;;4860485;29;20069;-95
2023/11/26 02:16:21;;;;;;;16.38;6.90;;;2.10;76.20;;;;;;4860361;29;20531;-94
2023/11/26 02:18:49;;;;;;;16.15;6.20;;;2.20;76.40;;;;;;4860677;29;20045;-94
2023/11/26 02:21:16;;;;;;;17.77;6.67;;;2.10;76.70;;;;;;4860202;29;20060;-94
2023/11/26 02:23:46;;;;;;;16.55;7.43;;;2.20;77.20;;;;;;4860708;29;20046;-94
2023/11/26 02:26:13;;;;;;;15.52;7.10;;;2.20;77.40;;;;;;4860097;29;20053;-94
2023/11/26 02:28:41;;;;;;;16.33;7.15;;;2.20;77.60;;;;;;4860269;29;20050;-95
2023/11/26 02:31:10;;;;;;;17.50;8.25;;;2.20;77.80;;;;;;4860621;29;20057;-95
2023/11/26 02:33:37;;;;;;;16.17;7.67;;;2.20;78.00;;;;;;4847594;29;20497;-95
2023/11/26 02:36:25;;;;;;;17.77;8.27;;;2.30;78.00;;;;;;4866021;29;20069;-95
2023/11/26 02:38:54;;;;;;;19.08;7.78;;;2.30;77.90;;;;;;4863793;29;20063;-95
2023/11/26 02:41:21;;;;;;;16.50;7.18;;;2.40;77.70;;;;;;4863616;29;20049;-95
2023/11/26 02:43:48;;;;;;;15.80;7.47;;;2.20;77.60;;;;;;4863685;29;20049;-94
2023/11/26 02:46:16;;;;;;;16.73;7.10;;;2.20;77.60;;;;;;4863314;29;20053;-95
2023/11/26 02:48:43;;;;;;;17.60;7.75;;;2.20;77.60;;;;;;4863880;29;20050;-95
2023/11/26 02:51:10;;;;;;;17.30;7.95;;;2.20;77.90;;;;;;4863542;29;20416;-96
2023/11/26 02:53:37;;;;;;;15.30;7.88;;;2.20;77.90;;;;;;4863707;29;20065;-96
2023/11/26 02:56:05;;;;;;;15.73;6.80;;;2.20;78.00;;;;;;4863427;29;20052;-95
2023/11/26 02:58:33;;;;;;;17.50;7.27;;;2.10;77.90;;;;;;4863650;29;20050;-95
2023/11/26 03:01:00;;;;;;;16.33;7.57;;;2.10;78.20;;;;;;4863330;29;20053;-95
2023/11/26 03:03:27;;;;;;;18.23;7.68;;;2.00;78.70;;;;;;4847937;29;20412;-95
2023/11/26 03:05:54;;;;;;;17.35;8.40;;;2.00;79.00;;;;;;4863005;29;20140;-95
2023/11/26 03:08:21;;;;;;;17.73;7.50;;;2.00;79.40;;;;;;4863106;29;20045;-95
2023/11/26 03:13:36;;;;;;;19.15;8.38;;;2.00;79.60;;;;;;4863095;29;20049;-96
2023/11/26 03:16:07;;;;;;;19.02;8.50;;;2.10;79.80;;;;;;4863173;29;20053;-95
2023/11/26 03:18:34;;;;;;;19.75;8.32;;;2.00;79.60;;;;;;4847647;29;20063;-96
2023/11/26 03:21:02;;;;;;;18.73;8.57;;;2.00;79.50;;;;;;4862864;29;20140;-95
2023/11/26 03:23:30;;;;;;;20.77;9.60;;;2.00;79.60;;;;;;4862930;29;20436;-96
2023/11/26 03:25:58;;;;;;;19.48;7.88;;;1.90;79.80;;;;;;4847465;29;20041;-96
2023/11/26 03:28:26;;;;;;;23.58;9.68;;;1.90;80.00;;;;;;4862850;29;20045;-95
2023/11/26 03:30:56;;;;;;;19.20;8.30;;;1.90;79.80;;;;;;4862726;29;20509;-96
2023/11/26 03:33:26;;;;;;;19.55;8.60;;;1.90;79.50;;;;;;4862900;29;20057;-96
2023/11/26 03:35:54;;;;;;;20.17;8.00;;;1.90;79.80;;;;;;4862630;29;20080;-96
2023/11/26 03:38:21;;;;;;;18.23;7.95;;;1.90;79.80;;;;;;4862658;29;20058;-96
2023/11/26 03:40:48;;;;;;;15.57;7.20;;;1.90;79.80;;;;;;4862772;29;20053;-96
2023/11/26 03:43:15;;;;;;;15.90;7.47;;;1.90;80.00;;;;;;4862568;29;20144;-95
2023/11/26 03:45:42;;;;;;;16.77;7.72;;;1.70;80.10;;;;;;4862705;29;20049;-95
2023/11/26 03:48:09;;;;;;;14.63;5.73;;;1.70;80.40;;;;;;4862654;29;20080;-96
2023/11/26 03:50:37;;;;;;;15.20;6.40;;;1.60;80.60;;;;;;4862478;29;20468;-95
2023/11/26 03:53:04;;;;;;;12.73;3.97;;;1.50;80.60;;;;;;4862527;29;20050;-95
2023/11/26 03:55:33;;;;;;;8.82;3.00;;;1.40;79.90;;;;;;4862283;29;20457;-96
2023/11/26 03:58:00;;;;;;;12.18;3.30;;;1.30;79.80;;;;;;4862208;29;20508;-95
2023/11/26 04:00:28;;;;;;;10.30;3.40;;;1.10;79.50;;;;;;4862555;29;20097;-96
2023/11/26 04:02:55;;;;;;;9.70;3.75;;;1.00;80.30;;;;;;4862324;29;20076;-96
2023/11/26 04:05:22;;;;;;;10.20;3.85;;;1.10;80.50;;;;;;4862364;29;20049;-95
2023/11/26 04:07:49;;;;;;;11.30;4.10;;;1.20;80.40;;;;;;4862179;29;20046;-95
2023/11/26 04:10:16;;;;;;;12.05;3.75;;;1.20;80.50;;;;;;4847087;29;20065;-95
2023/11/26 04:12:58;;;;;;;10.03;3.90;;;1.40;80.10;;;;;;4862112;29;20508;-95
2023/11/26 04:15:26;;;;;;;11.05;4.10;;;1.40;79.60;;;;;;4862125;29;20061;-95
2023/11/26 04:17:53;;;;;;;12.52;4.15;;;1.30;79.40;;;;;;4862099;29;20140;-94
2023/11/26 04:20:21;;;;;;;8.77;3.00;;;1.30;79.70;;;;;;4861928;29;20053;-96
2023/11/26 04:22:48;;;;;;;4.72;1.33;;;1.30;79.00;;;;;;4861924;29;20057;-96
2023/11/26 04:25:15;;;;;;;5.73;1.63;;;1.20;78.00;;;;;;4861542;29;20074;-95
2023/11/26 04:27:42;;;;;;;5.82;1.90;;;1.10;77.80;;;;;;4861684;29;20416;-95
2023/11/26 04:30:10;;;;;;;7.43;2.00;;;1.10;78.10;;;;;;4846825;29;20046;-95
2023/11/26 04:32:38;;;;;;;8.73;2.78;;;1.10;78.00;;;;;;4861972;29;20045;-95
2023/11/26 04:35:06;;;;;;;8.38;3.15;;;1.10;78.30;;;;;;4861940;29;20085;-95
2023/11/26 04:37:34;;;;;;;10.30;2.97;;;1.00;78.70;;;;;;4846228;29;20054;-95
2023/11/26 04:40:01;;;;;;;10.70;3.58;;;1.20;78.90;;;;;;4861783;29;20531;-95
2023/11/26 04:42:28;;;;;;;9.80;3.33;;;1.20;78.50;;;;;;4861512;29;20469;-96
2023/11/26 04:44:56;;;;;;;8.60;3.10;;;1.10;78.80;;;;;;4861625;29;20041;-94
2023/11/26 04:47:23;;;;;;;9.50;2.95;;;1.20;79.00;;;;;;4861305;29;20060;-94
2023/11/26 04:49:55;;;;;;;7.97;3.13;;;1.20;78.70;;;;;;4861426;29;20423;-95
2023/11/26 04:52:23;;;;;;;8.52;3.22;;;1.10;79.10;;;;;;4861422;29;20411;-95
2023/11/26 04:54:50;;;;;;;10.98;3.50;;;1.00;79.10;;;;;;4860747;29;20530;-95
2023/11/26 04:57:17;;;;;;;8.05;2.17;;;1.10;79.30;;;;;;4861296;29;20045;-95
2023/11/26 04:59:44;;;;;;;8.30;2.83;;;1.10;79.00;;;;;;4861677;29;20067;-95
2023/11/26 05:02:14;;;;;;;10.27;2.80;;;1.20;79.10;;;;;;4861324;29;20053;-95
2023/11/26 05:04:41;;;;;;;7.40;2.58;;;1.20;78.70;;;;;;4861522;29;20084;-96
2023/11/26 05:07:08;;;;;;;10.43;3.00;;;1.20;78.80;;;;;;4861336;29;20049;-95
2023/11/26 05:09:35;;;;;;;10.15;3.55;;;1.20;78.70;;;;;;4861166;29;20052;-95
2023/11/26 05:12:03;;;;;;;11.98;3.42;;;1.10;78.80;;;;;;4860938;29;20049;-95
2023/11/26 05:14:30;;;;;;;10.57;3.90;;;1.00;78.70;;;;;;4861132;29;20050;-95
2023/11/26 05:16:57;;;;;;;8.95;3.72;;;1.10;79.10;;;;;;4860911;29;20045;-95
2023/11/26 05:19:24;;;;;;;11.13;5.20;;;1.20;79.00;;;;;;4860865;29;20053;-96
2023/11/26 05:21:52;;;;;;;9.30;3.75;;;1.20;78.70;;;;;;4861007;29;20435;-95
2023/11/26 05:24:19;;;;;;;11.00;4.35;;;1.20;78.60;;;;;;4861053;29;20148;-95
2023/11/26 05:26:47;;;;;;;10.47;4.43;;;1.20;78.60;;;;;;4861024;29;20569;-96
2023/11/26 05:29:15;;;;;;;11.30;4.00;;;1.10;78.60;;;;;;4861061;29;20052;-96
2023/11/26 05:31:42;;;;;;;12.63;5.30;;;1.10;78.80;;;;;;4860722;29;20077;-96
2023/11/26 05:34:09;;;;;;;13.45;4.50;;;1.00;78.80;;;;;;4861068;29;20144;-96
2023/11/26 05:36:36;;;;;;;12.98;5.07;;;1.10;78.90;;;;;;4860674;29;20068;-96
2023/11/26 05:39:03;;;;;;;12.70;4.97;;;1.20;78.90;;;;;;4860980;29;20049;-96
2023/11/26 05:41:32;;;;;;;14.98;6.43;;;1.20;78.40;;;;;;4861666;29;20056;-95
2023/11/26 05:43:59;;;;;;;12.20;5.07;;;1.20;78.50;;;;;;4861972;29;20057;-95
2023/11/26 05:46:27;;;;;;;15.23;7.20;;;1.20;78.50;;;;;;4861832;29;20083;-95
2023/11/26 05:48:54;;;;;;;16.30;6.50;;;0.90;79.10;;;;;;4862059;29;20076;-96
2023/11/26 05:51:22;;;;;;;18.93;8.53;;;0.90;79.20;;;;;;4861603;29;20073;-96
2023/11/26 05:53:49;;;;;;;16.33;7.78;;;0.90;79.40;;;;;;4861868;29;20055;-95
2023/11/26 05:56:16;;;;;;;15.15;6.50;;;0.90;79.60;;;;;;4861651;29;20423;-95
2023/11/26 05:58:43;;;;;;;20.15;8.95;;;0.80;79.50;;;;;;4861777;29;20057;-96
2023/11/26 06:01:11;;;;;;;21.75;10.02;;;0.70;79.60;;;;;;4861583;29;20389;-96
2023/11/26 06:03:38;;;;;;;21.87;10.10;;;0.60;80.10;;;;;;4861776;29;20098;-95
2023/11/26 06:06:05;;;;;;;24.20;9.82;;;0.80;80.30;;;;;;4847002;29;20050;-96
2023/11/26 06:08:33;;;;;;;22.30;10.32;;;0.80;80.20;;;;;;4865950;29;20090;-96
2023/11/26 06:11:00;;;;;;;22.58;9.73;;;0.80;80.40;;;;;;4852548;29;20049;-96
2023/11/26 06:13:27;;;;;;;24.98;10.23;;;0.90;80.30;;;;;;4865808;29;20045;-96
2023/11/26 06:15:54;;;;;;;21.70;10.00;;;0.90;80.10;;;;;;4865059;29;20054;-96
2023/11/26 06:18:21;;;;;;;24.02;11.70;;;0.90;80.00;;;;;;4865960;29;20516;-96
2023/11/26 06:20:48;;;;;;;25.23;12.20;;;0.90;80.10;;;;;;4865056;29;20053;-96
2023/11/26 06:23:18;;;;;;;23.58;10.45;;;0.90;80.10;;;;;;4865334;29;20057;-96
2023/11/26 06:25:45;;;;;;;22.45;10.70;;;0.90;80.20;;;;;;4849697;29;20049;-96
2023/11/26 06:28:13;;;;;;;21.47;9.17;;;1.00;80.30;;;;;;4865154;29;20053;-96
2023/11/26 06:30:40;;;;;;;17.45;7.07;;;0.90;80.10;;;;;;4865038;29;20149;-95
2023/11/26 06:33:07;;;;;;;17.55;6.80;;;1.00;80.10;;;;;;4864658;29;20506;-96
2023/11/26 06:35:34;;;;;;;15.68;6.72;;;1.00;80.00;;;;;;4849604;29;20045;-96
2023/11/26 06:38:02;;;;;;;13.82;5.30;;;1.00;79.50;;;;;;4864671;29;20152;-95
2023/11/26 06:40:30;;;;;;;12.17;4.70;;;0.90;79.60;;;;;;4864829;29;20045;-95
2023/11/26 06:42:57;;;;;;;13.63;5.53;;;0.80;79.50;;;;;;4864693;29;20052;-95
2023/11/26 06:45:25;;;;;;;13.55;5.70;;;0.70;79.50;;;;;;4865058;29;20144;-96
2023/11/26 06:47:53;;;;;;;13.70;5.57;;;0.70;79.80;;;;;;4864439;29;20140;-95
2023/11/26 06:50:21;;;;;;;15.93;6.05;;;0.90;79.50;;;;;;4864863;29;20057;-96
2023/11/26 06:52:48;;;;;;;15.40;5.97;;;0.90;78.80;;;;;;4864577;29;20045;-96
2023/11/26 06:55:15;;;;;;;13.45;5.53;;;1.00;78.70;;;;;;4866854;29;20096;-96
2023/11/26 06:57:43;;;;;;;13.82;6.00;;;1.00;78.40;;;;;;4864570;29;20060;-96
2023/11/26 07:00:11;;;;;;;14.38;5.38;;;1.00;77.90;;;;;;4849225;29;20053;-95
2023/11/26 07:02:38;;;;;;;12.30;5.30;;;1.00;77.50;;;;;;4849032;29;20049;-95
2023/11/26 07:05:07;;;;;;;14.53;5.83;;;1.00;77.30;;;;;;4864686;29;20050;-95
2023/11/26 07:07:34;;;;;;;14.10;6.68;;;1.00;77.40;;;;;;4864670;29;20050;-96
2023/11/26 07:10:02;;;;;;;12.20;5.90;;;1.10;77.60;;;;;;4864535;29;20064;-96
2023/11/26 07:12:29;;;;;;;14.20;5.55;;;1.00;77.30;;;;;;4864071;29;20527;-96
2023/11/26 07:14:57;;;;;;;14.55;5.28;;;1.10;77.20;;;;;;4863997;29;20050;-95
2023/11/26 07:17:25;;;;;;;13.13;5.30;;;1.20;77.30;;;;;;4864161;29;20053;-95
2023/11/26 07:19:52;;;;;;;14.45;4.93;;;1.30;76.90;;;;;;4863943;29;20136;-96
2023/11/26 07:22:21;;;;;;;13.43;5.03;;;1.10;76.00;;;;;;4863767;29;20050;-96
2023/11/26 07:24:49;;;;;;;14.98;5.15;;;1.00;76.40;;;;;;4864478;29;20434;-96
2023/11/26 07:27:16;;;;;;;15.02;4.45;;;1.00;76.60;;;;;;4863778;29;20068;-95
2023/11/26 07:29:43;;;;;;;13.83;5.43;;;0.90;76.20;;;;;;4863886;29;20051;-95
2023/11/26 07:32:11;;;;;;;11.70;4.88;;;0.90;76.60;;;;;;4863890;29;20054;-95
2023/11/26 07:34:38;;;;;;;12.30;5.07;;;0.90;76.70;;;;;;4863937;29;20053;-95
2023/11/26 07:37:05;;;;;;;12.23;4.93;;;0.90;76.50;;;;;;4864231;29;20065;-95
2023/11/26 07:39:32;;;;;;;13.18;5.05;;;0.90;76.10;;;;;;4863794;29;20074;-96
2023/11/26 07:42:00;;;;;;;12.27;4.57;;;0.70;76.50;;;;;;4863899;29;20092;-95
2023/11/26 07:44:31;;;;;;;11.27;4.25;;;0.90;76.90;;;;;;4863865;29;20093;-96
2023/11/26 07:47:01;;;;;;;11.50;4.75;;;0.80;76.40;;;;;;4863639;29;20587;-95
2023/11/26 07:49:31;;;;;;;11.02;4.70;;;0.80;76.80;;;;;;4863237;29;20504;-95
2023/11/26 07:51:58;;;;;;;12.18;4.90;;;0.90;76.70;;;;;;4847599;29;20053;-95
2023/11/26 07:54:25;;;;;;;12.27;5.40;;;1.10;76.60;;;;;;4863160;29;20054;-95
2023/11/26 07:56:53;;;;;;;14.18;6.38;;;1.00;74.90;;;;;;4863279;29;20053;-95
2023/11/26 07:59:20;;;;;;;17.02;7.75;;;1.00;74.80;;;;;;4862668;29;20050;-94
2023/11/26 08:01:54;;;;;;;18.10;7.68;;;0.90;75.00;;;;;;4863667;29;20050;-92
2023/11/26 08:04:26;;;;;;;15.43;6.43;;;0.90;75.10;;;;;;4863022;29;20060;-94
2023/11/26 08:06:53;;;;;;;14.67;6.50;;;0.90;75.10;;;;;;4862750;29;20049;-95
2023/11/26 08:09:21;;;;;;;14.85;6.22;;;0.70;75.00;;;;;;4847370;29;20453;-94
2023/11/26 08:11:48;;;;;;;14.25;5.80;;;0.50;76.00;;;;;;4862834;29;20049;-94
2023/11/26 08:14:15;;;;;;;12.00;4.82;;;0.50;76.20;;;;;;4862637;29;20049;-95
2023/11/26 08:16:43;;;;;;;12.73;5.20;;;0.50;75.90;;;;;;4862405;29;20148;-95
2023/11/26 08:19:17;;;;;;;12.80;4.77;;;0.50;76.30;;;;;;4862553;29;20057;-95
2023/11/26 08:21:45;;;;;;;11.38;4.78;;;0.70;76.10;;;;;;4862380;29;20081;-95
2023/11/26 08:24:17;;;;;;;14.15;5.93;;;0.50;75.70;;;;;;4862798;29;20113;-95
2023/11/26 08:26:47;;;;;;;13.57;6.50;;;0.50;76.30;;;;;;4862143;29;20046;-95
2023/11/26 08:29:18;;;;;;;16.52;6.25;;;0.50;75.80;;;;;;4862199;29;20457;-94
2023/11/26 08:31:49;;;;;;;15.57;5.40;;;0.60;75.70;;;;;;4861769;29;20520;-95
2023/11/26 08:34:16;;;;;;;12.57;5.20;;;0.50;75.30;;;;;;4862504;29;20046;-95
2023/11/26 08:36:45;;;;;;;18.83;8.38;;;0.50;75.70;;;;;;4862715;29;20049;-94
2023/11/26 08:39:25;;;;;;;15.35;6.07;;;0.60;75.80;;;;;;4862300;29;20087;-94
2023/11/26 08:41:54;;;;;;;14.75;7.00;;;0.80;74.90;;;;;;4848552;29;20130;-96
2023/11/26 08:44:21;;;;;;;13.53;6.00;;;1.00;75.10;;;;;;4826800;29;20050;-96
2023/11/26 08:46:48;;;;;;;17.00;6.75;;;1.10;74.40;;;;;;4826173;29;20046;-95
2023/11/26 08:49:20;;;;;;;15.60;6.22;;;1.00;74.30;;;;;;4825973;29;20103;-95
2023/11/26 08:51:48;;;;;;;13.15;5.75;;;1.10;74.10;;;;;;4825988;29;20104;-95
2023/11/26 08:54:15;;;;;;;13.20;4.88;;;1.20;73.70;;;;;;4825536;29;20054;-94
2023/11/26 08:56:43;;;;;;;12.87;5.20;;;1.10;73.00;;;;;;4825880;29;20118;-95
2023/11/26 08:59:10;;;;;;;11.35;4.43;;;0.90;72.90;;;;;;4825598;29;20061;-95
2023/11/26 09:01:37;;;;;;;10.52;4.40;;;0.90;72.80;;;;;;4827073;29;20050;-92
2023/11/26 09:04:05;;;;;;;14.80;6.03;;;0.80;73.30;;;;;;4825387;29;20079;-92
2023/11/26 09:06:33;;;;;;;13.55;5.97;;;0.70;74.00;;;;;;4825585;29;20408;-93
2023/11/26 09:09:00;;;;;;;18.07;6.43;;;0.90;73.40;;;;;;4854959;29;20041;-94
2023/11/26 09:11:27;;;;;;;17.02;7.72;;;0.90;73.30;;;;;;4862133;29;20054;-94
2023/11/26 09:13:54;;;;;;;18.55;7.88;;;0.80;73.70;;;;;;4862179;29;20407;-94
2023/11/26 09:16:21;;;;;;;16.42;7.40;;;0.90;73.80;;;;;;4861927;29;20053;-94
2023/11/26 09:18:48;;;;;;;17.60;7.03;;;0.90;73.80;;;;;;4861329;29;20045;-94
2023/11/26 09:21:16;;;;;;;15.77;7.10;;;0.90;74.60;;;;;;4861911;29;20420;-91
2023/11/26 09:23:44;;;;;;;15.23;6.00;;;1.00;75.50;;;;;;4861495;29;20049;-93
2023/11/26 09:26:12;;;;;;;17.50;7.75;;;1.00;75.90;;;;;;4846278;29;20072;-94
2023/11/26 09:28:39;;;;;;;15.43;6.57;;;0.90;76.00;;;;;;4861620;29;20045;-93
2023/11/26 09:31:08;;;;;;;17.55;7.53;;;0.70;76.80;;;;;;4846194;29;20053;-93
2023/11/26 09:33:36;;;;;;;16.80;7.67;;;0.70;77.10;;;;;;4861517;29;20053;-93
2023/11/26 09:36:04;;;;;;;17.95;7.00;;;0.80;77.00;;;;;;4861738;29;20054;-94
2023/11/26 09:38:31;;;;;;;16.80;7.00;;;0.90;76.50;;;;;;4861637;29;20419;-94
2023/11/26 09:40:58;;;;;;;16.98;7.43;;;0.90;76.40;;;;;;4861239;29;20125;-95
2023/11/26 09:43:26;;;;;;;19.38;8.52;;;1.00;76.30;;;;;;4861378;29;20401;-94
2023/11/26 09:45:54;;;;;;;17.00;8.83;;;0.90;76.50;;;;;;4861546;29;20457;-94
2023/11/26 09:48:21;;;;;;;18.05;8.55;;;1.00;76.90;;;;;;4861349;29;20174;-94
2023/11/26 09:50:53;;;;;;;20.55;8.93;;;1.00;76.50;;;;;;4861348;29;20060;-94
2023/11/26 09:53:22;;;;;;;20.00;9.95;;;0.90;76.60;;;;;;4861345;29;20053;-95
2023/11/26 09:55:50;;;;;;;21.98;8.45;;;0.90;76.70;;;;;;4861196;29;20053;-94
2023/11/26 09:58:17;;;;;;;18.37;8.10;;;0.80;76.70;;;;;;4861471;29;20060;-94
2023/11/26 10:00:44;;;;;;;21.85;8.70;;;0.60;76.70;;;;;;4861584;29;20125;-94
2023/11/26 10:03:11;;;;;;;19.65;8.80;;;0.60;77.30;;;;;;4861362;29;20109;-94
2023/11/26 10:05:38;;;;;;;16.65;7.65;;;0.70;77.60;;;;;;4861403;29;20500;-93
2023/11/26 10:08:07;;;;;;;14.63;6.53;;;0.80;77.70;;;;;;4861098;29;20056;-94
2023/11/26 10:13:40;;;;;;;13.60;6.63;;;0.70;77.10;;;;;;5647555;23;20049;-93
2023/11/26 10:20:50;;;;;;;11.02;5.18;;;0.90;77.50;;;;;;4863164;29;20040;-93
2023/11/26 10:23:25;;;;;;;12.77;5.97;;;1.20;76.30;;;;;;4846273;29;20053;-93
2023/11/26 10:25:52;;;;;;;14.30;6.07;;;1.10;75.40;;;;;;4846384;29;20059;-94
2023/11/26 10:28:19;;;;;;;12.90;5.57;;;1.10;75.30;;;;;;4831141;29;20049;-92
2023/11/26 10:30:46;;;;;;;11.48;5.35;;;1.00;74.10;;;;;;4846045;29;20101;-93
2023/11/26 10:33:13;;;;;;;11.52;5.00;;;1.00;74.40;;;;;;4831133;29;20049;-93
2023/11/26 10:35:53;;;;;;;11.65;5.30;;;1.00;74.10;;;;;;4831081;29;20554;-93
2023/11/26 10:38:27;;;;;;;13.63;6.27;;;1.10;74.20;;;;;;4846428;29;20069;-93
2023/11/26 10:40:56;;;;;;;12.02;5.45;;;1.00;74.50;;;;;;4846144;29;20053;-93
2023/11/26 10:43:24;;;;;;;10.90;5.03;;;0.90;75.10;;;;;;4846215;29;20109;-95
2023/11/26 10:45:52;;;;;;;15.73;5.20;;;1.00;75.30;;;;;;4846157;29;20148;-96
2023/11/26 10:48:19;;;;;;;14.65;5.75;;;1.10;74.90;;;;;;4846320;29;20049;-96
2023/11/26 10:50:58;;;;;;;12.40;5.33;;;1.00;74.50;;;;;;4846382;29;20412;-96
2023/11/26 10:53:58;;;;;;;15.32;5.38;;;1.00;74.40;;;;;;4833223;29;20045;-95
2023/11/26 10:56:37;;;;;;;10.10;4.40;;;1.20;74.20;;;;;;4849462;29;20523;-96
2023/11/26 10:59:07;;;;;;;11.27;4.60;;;1.00;72.90;;;;;;4849458;29;20050;-96
2023/11/26 11:01:39;;;;;;;10.50;4.72;;;0.90;73.20;;;;;;4849392;29;20050;-95
2023/11/26 11:04:13;;;;;;;12.07;4.23;;;1.00;73.20;;;;;;4849360;29;20056;-95
2023/11/26 11:06:43;;;;;;;9.85;3.97;;;0.90;73.50;;;;;;4834038;29;20145;-96
2023/11/26 11:09:21;;;;;;;10.70;4.40;;;0.80;73.00;;;;;;4850301;29;20393;-96
2023/11/26 11:12:12;;;;;;;10.15;3.85;;;0.70;74.10;;;;;;4849221;29;20045;-95
2023/11/26 11:14:40;;;;;;;11.00;4.35;;;0.70;73.70;;;;;;4848974;29;20408;-95
2023/11/26 11:17:27;;;;;;;10.80;4.60;;;0.50;74.00;;;;;;4849016;29;20144;-96
2023/11/26 11:19:57;;;;;;;11.40;4.55;;;0.50;74.60;;;;;;4833676;29;20456;-95
2023/11/26 11:22:35;;;;;;;9.00;4.32;;;0.50;74.20;;;;;;4833575;29;20081;-96
2023/11/26 11:25:14;;;;;;;11.07;4.70;;;0.60;73.80;;;;;;4834003;29;20094;-96
2023/11/26 11:27:58;;;;;;;10.85;4.15;;;0.60;73.90;;;;;;4848885;29;20075;-95
2023/11/26 11:30:31;;;;;;;7.77;3.47;;;0.60;73.90;;;;;;4848748;29;20508;-96
2023/11/26 11:33:09;;;;;;;8.10;3.15;;;0.60;74.50;;;;;;4833578;29;20152;-95
2023/11/26 11:35:41;;;;;;;9.93;2.70;;;0.60;74.70;;;;;;4848334;29;20149;-94
2023/11/26 11:38:12;;;;;;;7.45;2.47;;;0.70;75.00;;;;;;4848584;29;20130;-95
2023/11/26 11:41:13;;;;;;;9.43;3.80;;;0.60;74.60;;;;;;4833077;29;20053;-95
2023/11/26 11:43:41;;;;;;;14.60;5.47;;;0.60;74.70;;;;;;4848604;29;20049;-96
2023/11/26 11:46:27;;;;;;;8.80;4.55;;;0.40;74.70;;;;;;4833285;29;20057;-96
2023/11/26 11:48:56;;;;;;;9.98;4.90;;;0.40;74.80;;;;;;4848541;29;20054;-96
2023/11/26 11:51:30;;;;;;;11.02;4.40;;;0.40;74.80;;;;;;4833107;29;20041;-96
2023/11/26 11:54:01;;;;;;;9.00;4.32;;;0.50;74.50;;;;;;4848432;29;20045;-95
2023/11/26 11:56:29;;;;;;;10.67;4.60;;;0.60;74.10;;;;;;4848343;29;20053;-96
2023/11/26 11:59:00;;;;;;;9.55;4.57;;;0.60;73.90;;;;;;4833360;29;20049;-96
2023/11/26 12:01:27;;;;;;;10.52;4.00;;;0.60;73.80;;;;;;4848241;29;20053;-95
2023/11/26 12:04:00;;;;;;;8.70;3.85;;;0.70;73.80;;;;;;4832754;29;20054;-95
2023/11/26 12:06:31;;;;;;;9.10;3.10;;;0.60;73.70;;;;;;4832921;29;20052;-95
2023/11/26 12:09:05;;;;;;;9.20;4.23;;;0.50;73.00;;;;;;4833290;29;20049;-94
2023/11/26 12:11:47;;;;;;;8.90;3.78;;;0.60;74.10;;;;;;4833557;29;20084;-95
2023/11/26 12:14:25;;;;;;;9.15;3.70;;;0.60;73.50;;;;;;4849383;29;20054;-95
2023/11/26 12:16:53;;;;;;;12.95;4.20;;;0.50;73.60;;;;;;4833160;29;20045;-96
2023/11/26 12:19:21;;;;;;;10.98;4.50;;;0.70;73.70;;;;;;4832913;29;20072;-96
2023/11/26 12:21:49;;;;;;;10.67;4.00;;;0.80;73.30;;;;;;4833291;29;20137;-96
2023/11/26 12:24:21;;;;;;;9.43;4.25;;;0.80;72.40;;;;;;4832471;29;20049;-95
2023/11/26 12:26:49;;;;;;;8.98;4.28;;;0.60;72.30;;;;;;4847899;29;20050;-95
2023/11/26 12:29:27;;;;;;;9.98;3.70;;;0.60;72.50;;;;;;4847561;29;20055;-95
2023/11/26 12:32:08;;;;;;;8.45;3.42;;;0.50;71.80;;;;;;4847598;29;20054;-95
2023/11/26 12:34:37;;;;;;;7.43;3.03;;;0.60;71.50;;;;;;4847497;29;20046;-95
2023/11/26 12:37:07;;;;;;;8.02;3.05;;;0.60;71.00;;;;;;4832480;29;20485;-95
2023/11/26 12:39:36;;;;;;;7.55;3.00;;;0.70;70.10;;;;;;4847385;29;20105;-95
2023/11/26 12:42:04;;;;;;;8.73;2.80;;;0.80;70.00;;;;;;4832671;29;20078;-94
2023/11/26 12:44:35;;;;;;;7.45;3.28;;;0.90;70.00;;;;;;4832526;29;20144;-95
2023/11/26 12:47:09;;;;;;;8.60;3.20;;;1.00;69.80;;;;;;4832290;29;20050;-95
2023/11/26 12:49:40;;;;;;;8.43;3.17;;;1.20;69.10;;;;;;4847831;29;20527;-96
2023/11/26 12:52:09;;;;;;;8.23;3.60;;;1.40;68.50;;;;;;4832288;29;20064;-95
2023/11/26 12:54:37;;;;;;;8.55;3.50;;;1.50;68.30;;;;;;4831859;29;20515;-95
2023/11/26 12:57:04;;;;;;;8.93;3.55;;;1.40;67.80;;;;;;4846869;29;20050;-95
2023/11/26 12:59:48;;;;;;;8.60;3.67;;;1.30;67.50;;;;;;4831805;29;20070;-96
2023/11/26 13:02:17;;;;;;;8.80;3.63;;;1.10;68.10;;;;;;4832489;29;20085;-95
2023/11/26 13:04:45;;;;;;;8.25;3.15;;;1.10;68.20;;;;;;4831861;29;20049;-96
2023/11/26 13:07:12;;;;;;;12.60;3.38;;;1.20;68.20;;;;;;4831844;29;20045;-96